sensor_id;sensor_type;location;lat;lon;timestamp;pressure;altitude;pressure_sealevel;temperature
67822;BMP180;54434;50.096;20.082;2023-09-19T00:01:30;98298.40;;;16.30
67822;BMP180;54434;50.096;20.082;2023-09-19T00:04:08;98298.40;;;16.40
67822;BMP180;54434;50.096;20.082;2023-09-19T00:06:45;98301.00;;;16.40
67822;BMP180;54434;50.096;20.082;2023-09-19T00:09:22;98299.40;;;16.40
67822;BMP180;54434;50.096;20.082;2023-09-19T00:12:02;98298.60;;;16.50
67822;BMP180;54434;50.096;20.082;2023-09-19T00:14:39;98295.80;;;16.50
67822;BMP180;54434;50.096;20.082;2023-09-19T00:17:15;98297.40;;;16.56
67822;BMP180;54434;50.096;20.082;2023-09-19T00:19:52;98298.80;;;16.60
67822;BMP180;54434;50.096;20.082;2023-09-19T00:22:28;98299.40;;;16.60
67822;BMP180;54434;50.096;20.082;2023-09-19T00:25:06;98295.20;;;16.60
67822;BMP180;54434;50.096;20.082;2023-09-19T00:27:43;98296.40;;;16.70
67822;BMP180;54434;50.096;20.082;2023-09-19T00:30:20;98289.80;;;16.70
67822;BMP180;54434;50.096;20.082;2023-09-19T00:32:59;98289.20;;;16.70
67822;BMP180;54434;50.096;20.082;2023-09-19T00:35:38;98289.80;;;16.78
67822;BMP180;54434;50.096;20.082;2023-09-19T00:38:14;98285.60;;;16.80
67822;BMP180;54434;50.096;20.082;2023-09-19T00:40:53;98289.40;;;16.80
67822;BMP180;54434;50.096;20.082;2023-09-19T00:43:34;98280.40;;;16.80
67822;BMP180;54434;50.096;20.082;2023-09-19T00:46:11;98277.20;;;16.82
67822;BMP180;54434;50.096;20.082;2023-09-19T00:48:48;98272.20;;;16.90
67822;BMP180;54434;50.096;20.082;2023-09-19T00:51:26;98277.60;;;16.90
67822;BMP180;54434;50.096;20.082;2023-09-19T00:54:03;98275.00;;;16.90
67822;BMP180;54434;50.096;20.082;2023-09-19T00:56:42;98271.20;;;16.90
67822;BMP180;54434;50.096;20.082;2023-09-19T00:59:19;98280.60;;;16.92
67822;BMP180;54434;50.096;20.082;2023-09-19T01:01:58;98273.80;;;17.00
67822;BMP180;54434;50.096;20.082;2023-09-19T01:04:35;98280.40;;;17.00
67822;BMP180;54434;50.096;20.082;2023-09-19T01:07:12;98278.20;;;17.00
67822;BMP180;54434;50.096;20.082;2023-09-19T01:09:50;98278.40;;;17.00
67822;BMP180;54434;50.096;20.082;2023-09-19T01:12:49;98278.00;;;17.00
67822;BMP180;54434;50.096;20.082;2023-09-19T01:15:44;98276.20;;;17.06
67822;BMP180;54434;50.096;20.082;2023-09-19T01:18:39;98281.60;;;17.10
67822;BMP180;54434;50.096;20.082;2023-09-19T01:21:30;98288.80;;;17.10
67822;BMP180;54434;50.096;20.082;2023-09-19T01:24:53;98292.80;;;17.10
67822;BMP180;54434;50.096;20.082;2023-09-19T01:28:10;98286.60;;;17.16
67822;BMP180;54434;50.096;20.082;2023-09-19T01:30:58;98284.00;;;17.18
67822;BMP180;54434;50.096;20.082;2023-09-19T01:33:59;98284.80;;;17.14
67822;BMP180;54434;50.096;20.082;2023-09-19T01:36:38;98268.40;;;17.10
67822;BMP180;54434;50.096;20.082;2023-09-19T01:39:16;98255.40;;;17.10
67822;BMP180;54434;50.096;20.082;2023-09-19T01:42:15;98254.20;;;17.10
67822;BMP180;54434;50.096;20.082;2023-09-19T01:45:06;98254.20;;;17.10
67822;BMP180;54434;50.096;20.082;2023-09-19T01:47:53;98251.80;;;17.10
67822;BMP180;54434;50.096;20.082;2023-09-19T01:50:42;98250.40;;;17.10
67822;BMP180;54434;50.096;20.082;2023-09-19T01:53:27;98246.60;;;17.10
67822;BMP180;54434;50.096;20.082;2023-09-19T01:56:09;98242.00;;;17.10
67822;BMP180;54434;50.096;20.082;2023-09-19T01:58:56;98245.00;;;17.10
67822;BMP180;54434;50.096;20.082;2023-09-19T02:01:34;98244.40;;;17.10
67822;BMP180;54434;50.096;20.082;2023-09-19T02:04:12;98245.20;;;17.10
67822;BMP180;54434;50.096;20.082;2023-09-19T02:06:49;98247.60;;;17.04
67822;BMP180;54434;50.096;20.082;2023-09-19T02:09:27;98246.00;;;17.00
67822;BMP180;54434;50.096;20.082;2023-09-19T02:12:04;98239.80;;;17.00
67822;BMP180;54434;50.096;20.082;2023-09-19T02:14:40;98238.00;;;17.00
67822;BMP180;54434;50.096;20.082;2023-09-19T02:17:17;98236.00;;;17.00
67822;BMP180;54434;50.096;20.082;2023-09-19T02:19:55;98236.20;;;17.00
67822;BMP180;54434;50.096;20.082;2023-09-19T02:22:31;98234.80;;;17.00
67822;BMP180;54434;50.096;20.082;2023-09-19T02:25:10;98234.00;;;17.10
67822;BMP180;54434;50.096;20.082;2023-09-19T02:27:49;98229.80;;;17.10
67822;BMP180;54434;50.096;20.082;2023-09-19T02:30:31;98229.60;;;17.10
67822;BMP180;54434;50.096;20.082;2023-09-19T02:33:08;98231.20;;;17.10
67822;BMP180;54434;50.096;20.082;2023-09-19T02:35:45;98230.40;;;17.10
67822;BMP180;54434;50.096;20.082;2023-09-19T02:38:22;98232.00;;;17.10
67822;BMP180;54434;50.096;20.082;2023-09-19T02:41:00;98227.40;;;17.10
67822;BMP180;54434;50.096;20.082;2023-09-19T02:43:37;98226.20;;;17.10
67822;BMP180;54434;50.096;20.082;2023-09-19T02:46:15;98220.80;;;17.10
67822;BMP180;54434;50.096;20.082;2023-09-19T02:48:53;98212.60;;;17.14
67822;BMP180;54434;50.096;20.082;2023-09-19T02:51:30;98208.80;;;17.14
67822;BMP180;54434;50.096;20.082;2023-09-19T02:54:08;98205.20;;;17.14
67822;BMP180;54434;50.096;20.082;2023-09-19T02:56:45;98198.00;;;17.10
67822;BMP180;54434;50.096;20.082;2023-09-19T02:59:23;98189.20;;;17.10
67822;BMP180;54434;50.096;20.082;2023-09-19T03:02:00;98186.80;;;17.10
67822;BMP180;54434;50.096;20.082;2023-09-19T03:04:38;98184.20;;;17.10
67822;BMP180;54434;50.096;20.082;2023-09-19T03:07:16;98181.60;;;17.10
67822;BMP180;54434;50.096;20.082;2023-09-19T03:09:52;98179.80;;;17.10
67822;BMP180;54434;50.096;20.082;2023-09-19T03:12:30;98178.20;;;17.10
67822;BMP180;54434;50.096;20.082;2023-09-19T03:15:10;98171.60;;;17.10
67822;BMP180;54434;50.096;20.082;2023-09-19T03:17:50;98168.60;;;17.10
67822;BMP180;54434;50.096;20.082;2023-09-19T03:20:28;98163.80;;;17.10
67822;BMP180;54434;50.096;20.082;2023-09-19T03:23:05;98160.80;;;17.10
67822;BMP180;54434;50.096;20.082;2023-09-19T03:25:43;98159.60;;;17.10
67822;BMP180;54434;50.096;20.082;2023-09-19T03:28:20;98157.60;;;17.10
67822;BMP180;54434;50.096;20.082;2023-09-19T03:31:08;98150.40;;;17.10
67822;BMP180;54434;50.096;20.082;2023-09-19T03:33:45;98146.20;;;17.10
67822;BMP180;54434;50.096;20.082;2023-09-19T03:36:21;98143.00;;;17.10
67822;BMP180;54434;50.096;20.082;2023-09-19T03:38:59;98141.60;;;17.10
67822;BMP180;54434;50.096;20.082;2023-09-19T03:41:36;98140.00;;;17.10
67822;BMP180;54434;50.096;20.082;2023-09-19T03:44:12;98137.60;;;17.10
67822;BMP180;54434;50.096;20.082;2023-09-19T03:46:50;98138.20;;;17.10
67822;BMP180;54434;50.096;20.082;2023-09-19T03:49:27;98135.20;;;17.10
67822;BMP180;54434;50.096;20.082;2023-09-19T03:52:05;98135.80;;;17.14
67822;BMP180;54434;50.096;20.082;2023-09-19T03:54:41;98138.00;;;17.18
67822;BMP180;54434;50.096;20.082;2023-09-19T03:57:19;98136.20;;;17.20
67822;BMP180;54434;50.096;20.082;2023-09-19T03:59:58;98134.40;;;17.20
67822;BMP180;54434;50.096;20.082;2023-09-19T04:02:34;98134.00;;;17.20
67822;BMP180;54434;50.096;20.082;2023-09-19T04:05:12;98130.40;;;17.20
67822;BMP180;54434;50.096;20.082;2023-09-19T04:07:48;98124.80;;;17.20
67822;BMP180;54434;50.096;20.082;2023-09-19T04:10:25;98124.60;;;17.20
67822;BMP180;54434;50.096;20.082;2023-09-19T04:13:02;98121.00;;;17.20
67822;BMP180;54434;50.096;20.082;2023-09-19T04:15:38;98121.00;;;17.20
67822;BMP180;54434;50.096;20.082;2023-09-19T04:18:16;98121.60;;;17.20
67822;BMP180;54434;50.096;20.082;2023-09-19T04:20:54;98122.60;;;17.30
67822;BMP180;54434;50.096;20.082;2023-09-19T04:23:31;98115.60;;;17.30
67822;BMP180;54434;50.096;20.082;2023-09-19T04:26:08;98116.60;;;17.30
67822;BMP180;54434;50.096;20.082;2023-09-19T04:28:44;98120.60;;;17.30
67822;BMP180;54434;50.096;20.082;2023-09-19T04:31:21;98123.40;;;17.30
67822;BMP180;54434;50.096;20.082;2023-09-19T04:33:58;98125.60;;;17.30
67822;BMP180;54434;50.096;20.082;2023-09-19T04:36:40;98129.00;;;17.30
67822;BMP180;54434;50.096;20.082;2023-09-19T04:39:17;98127.60;;;17.34
67822;BMP180;54434;50.096;20.082;2023-09-19T04:41:53;98120.40;;;17.38
67822;BMP180;54434;50.096;20.082;2023-09-19T04:44:30;98114.40;;;17.40
67822;BMP180;54434;50.096;20.082;2023-09-19T04:47:07;98113.40;;;17.40
67822;BMP180;54434;50.096;20.082;2023-09-19T04:49:43;98116.20;;;17.30
67822;BMP180;54434;50.096;20.082;2023-09-19T04:52:20;98115.20;;;17.30
67822;BMP180;54434;50.096;20.082;2023-09-19T04:54:56;98119.60;;;17.30
67822;BMP180;54434;50.096;20.082;2023-09-19T04:57:33;98121.40;;;17.30
67822;BMP180;54434;50.096;20.082;2023-09-19T05:00:13;98128.40;;;17.30
67822;BMP180;54434;50.096;20.082;2023-09-19T05:02:54;98134.80;;;17.30
67822;BMP180;54434;50.096;20.082;2023-09-19T05:05:32;98135.20;;;17.30
67822;BMP180;54434;50.096;20.082;2023-09-19T05:08:10;98140.60;;;17.30
67822;BMP180;54434;50.096;20.082;2023-09-19T05:10:49;98144.40;;;17.30
67822;BMP180;54434;50.096;20.082;2023-09-19T05:13:26;98152.00;;;17.30
67822;BMP180;54434;50.096;20.082;2023-09-19T05:16:06;98157.00;;;17.30
67822;BMP180;54434;50.096;20.082;2023-09-19T05:18:45;98159.00;;;17.30
67822;BMP180;54434;50.096;20.082;2023-09-19T05:21:21;98152.00;;;17.30
67822;BMP180;54434;50.096;20.082;2023-09-19T05:23:58;98153.00;;;17.30
67822;BMP180;54434;50.096;20.082;2023-09-19T05:26:35;98148.80;;;17.30
67822;BMP180;54434;50.096;20.082;2023-09-19T05:29:11;98143.60;;;17.38
67822;BMP180;54434;50.096;20.082;2023-09-19T05:31:48;98139.80;;;17.40
67822;BMP180;54434;50.096;20.082;2023-09-19T05:34:26;98136.00;;;17.40
67822;BMP180;54434;50.096;20.082;2023-09-19T05:37:06;98129.80;;;17.40
67822;BMP180;54434;50.096;20.082;2023-09-19T05:39:43;98125.40;;;17.48
67822;BMP180;54434;50.096;20.082;2023-09-19T05:42:19;98130.40;;;17.50
67822;BMP180;54434;50.096;20.082;2023-09-19T05:44:56;98129.00;;;17.50
67822;BMP180;54434;50.096;20.082;2023-09-19T05:47:33;98129.00;;;17.50
67822;BMP180;54434;50.096;20.082;2023-09-19T05:50:12;98137.60;;;17.50
67822;BMP180;54434;50.096;20.082;2023-09-19T05:52:56;98142.00;;;17.52
67822;BMP180;54434;50.096;20.082;2023-09-19T05:55:33;98149.00;;;17.60
67822;BMP180;54434;50.096;20.082;2023-09-19T05:58:10;98154.60;;;17.60
67822;BMP180;54434;50.096;20.082;2023-09-19T06:00:49;98156.00;;;17.58
67822;BMP180;54434;50.096;20.082;2023-09-19T06:03:27;98156.80;;;17.60
67822;BMP180;54434;50.096;20.082;2023-09-19T06:06:04;98156.20;;;17.60
67822;BMP180;54434;50.096;20.082;2023-09-19T06:08:41;98155.40;;;17.60
67822;BMP180;54434;50.096;20.082;2023-09-19T06:11:19;98153.00;;;17.64
67822;BMP180;54434;50.096;20.082;2023-09-19T06:13:56;98160.80;;;17.70
67822;BMP180;54434;50.096;20.082;2023-09-19T06:16:35;98171.40;;;17.70
67822;BMP180;54434;50.096;20.082;2023-09-19T06:19:13;98175.20;;;17.70
67822;BMP180;54434;50.096;20.082;2023-09-19T06:21:49;98180.00;;;17.70
67822;BMP180;54434;50.096;20.082;2023-09-19T06:24:26;98177.40;;;17.70
67822;BMP180;54434;50.096;20.082;2023-09-19T06:27:04;98176.60;;;17.70
67822;BMP180;54434;50.096;20.082;2023-09-19T06:29:42;98174.60;;;17.70
67822;BMP180;54434;50.096;20.082;2023-09-19T06:32:18;98179.20;;;17.78
67822;BMP180;54434;50.096;20.082;2023-09-19T06:34:58;98182.80;;;17.80
67822;BMP180;54434;50.096;20.082;2023-09-19T06:37:34;98182.20;;;17.80
67822;BMP180;54434;50.096;20.082;2023-09-19T06:40:15;98181.20;;;17.80
67822;BMP180;54434;50.096;20.082;2023-09-19T06:42:55;98180.40;;;17.80
67822;BMP180;54434;50.096;20.082;2023-09-19T06:45:32;98173.20;;;17.80
67822;BMP180;54434;50.096;20.082;2023-09-19T06:48:10;98174.20;;;17.80
67822;BMP180;54434;50.096;20.082;2023-09-19T06:50:47;98177.00;;;17.80
67822;BMP180;54434;50.096;20.082;2023-09-19T06:53:24;98176.20;;;17.80
67822;BMP180;54434;50.096;20.082;2023-09-19T06:56:01;98185.00;;;17.80
67822;BMP180;54434;50.096;20.082;2023-09-19T06:58:38;98185.60;;;17.80
67822;BMP180;54434;50.096;20.082;2023-09-19T07:01:14;98194.80;;;17.84
67822;BMP180;54434;50.096;20.082;2023-09-19T07:03:50;98195.20;;;17.88
67822;BMP180;54434;50.096;20.082;2023-09-19T07:06:28;98196.60;;;17.90
67822;BMP180;54434;50.096;20.082;2023-09-19T07:09:05;98195.40;;;17.90
67822;BMP180;54434;50.096;20.082;2023-09-19T07:11:43;98201.40;;;17.90
67822;BMP180;54434;50.096;20.082;2023-09-19T07:14:20;98201.80;;;17.90
67822;BMP180;54434;50.096;20.082;2023-09-19T07:16:56;98204.80;;;17.90
67822;BMP180;54434;50.096;20.082;2023-09-19T07:19:34;98205.00;;;17.90
67822;BMP180;54434;50.096;20.082;2023-09-19T07:22:11;98208.40;;;17.90
67822;BMP180;54434;50.096;20.082;2023-09-19T07:24:48;98208.00;;;17.90
67822;BMP180;54434;50.096;20.082;2023-09-19T07:27:24;98211.20;;;17.90
67822;BMP180;54434;50.096;20.082;2023-09-19T07:30:01;98217.60;;;17.98
67822;BMP180;54434;50.096;20.082;2023-09-19T07:32:37;98217.40;;;18.00
67822;BMP180;54434;50.096;20.082;2023-09-19T07:35:16;98213.60;;;18.00
67822;BMP180;54434;50.096;20.082;2023-09-19T07:37:55;98215.00;;;18.00
67822;BMP180;54434;50.096;20.082;2023-09-19T07:40:32;98213.00;;;18.00
67822;BMP180;54434;50.096;20.082;2023-09-19T07:43:08;98215.00;;;18.10
67822;BMP180;54434;50.096;20.082;2023-09-19T07:45:45;98215.00;;;18.10
67822;BMP180;54434;50.096;20.082;2023-09-19T07:48:22;98215.40;;;18.10
67822;BMP180;54434;50.096;20.082;2023-09-19T07:51:05;98216.40;;;18.10
67822;BMP180;54434;50.096;20.082;2023-09-19T07:53:42;98218.80;;;18.10
67822;BMP180;54434;50.096;20.082;2023-09-19T07:56:18;98219.80;;;18.10
67822;BMP180;54434;50.096;20.082;2023-09-19T07:58:56;98220.80;;;18.10
67822;BMP180;54434;50.096;20.082;2023-09-19T08:01:34;98219.40;;;18.10
67822;BMP180;54434;50.096;20.082;2023-09-19T08:04:12;98224.00;;;18.20
67822;BMP180;54434;50.096;20.082;2023-09-19T08:06:49;98229.20;;;18.20
67822;BMP180;54434;50.096;20.082;2023-09-19T08:09:27;98229.20;;;18.10
67822;BMP180;54434;50.096;20.082;2023-09-19T08:12:09;98233.40;;;18.10
67822;BMP180;54434;50.096;20.082;2023-09-19T08:14:46;98235.40;;;18.10
67822;BMP180;54434;50.096;20.082;2023-09-19T08:17:23;98237.80;;;18.10
67822;BMP180;54434;50.096;20.082;2023-09-19T08:20:00;98237.20;;;18.00
67822;BMP180;54434;50.096;20.082;2023-09-19T08:22:38;98238.20;;;18.00
67822;BMP180;54434;50.096;20.082;2023-09-19T08:25:15;98239.40;;;18.00
67822;BMP180;54434;50.096;20.082;2023-09-19T08:27:54;98240.40;;;18.00
67822;BMP180;54434;50.096;20.082;2023-09-19T08:30:33;98241.80;;;18.00
67822;BMP180;54434;50.096;20.082;2023-09-19T08:33:10;98242.60;;;18.00
67822;BMP180;54434;50.096;20.082;2023-09-19T08:35:46;98249.00;;;18.00
67822;BMP180;54434;50.096;20.082;2023-09-19T08:38:23;98249.00;;;18.00
67822;BMP180;54434;50.096;20.082;2023-09-19T08:41:05;98257.40;;;18.00
67822;BMP180;54434;50.096;20.082;2023-09-19T08:43:42;98262.40;;;18.00
67822;BMP180;54434;50.096;20.082;2023-09-19T08:46:20;98266.60;;;18.00
67822;BMP180;54434;50.096;20.082;2023-09-19T08:49:08;98272.60;;;18.00
67822;BMP180;54434;50.096;20.082;2023-09-19T08:51:47;98277.60;;;18.00
67822;BMP180;54434;50.096;20.082;2023-09-19T08:54:35;98283.20;;;18.00
67822;BMP180;54434;50.096;20.082;2023-09-19T08:57:14;98287.40;;;18.00
67822;BMP180;54434;50.096;20.082;2023-09-19T08:59:58;98288.40;;;17.98
67822;BMP180;54434;50.096;20.082;2023-09-19T09:02:36;98293.20;;;17.90
67822;BMP180;54434;50.096;20.082;2023-09-19T09:05:16;98297.40;;;17.90
67822;BMP180;54434;50.096;20.082;2023-09-19T09:07:59;98302.80;;;17.90
67822;BMP180;54434;50.096;20.082;2023-09-19T09:10:36;98304.20;;;17.90
67822;BMP180;54434;50.096;20.082;2023-09-19T09:13:15;98314.80;;;18.00
67822;BMP180;54434;50.096;20.082;2023-09-19T09:15:53;98316.60;;;18.00
67822;BMP180;54434;50.096;20.082;2023-09-19T09:18:31;98318.20;;;18.00
67822;BMP180;54434;50.096;20.082;2023-09-19T09:21:08;98324.20;;;18.00
67822;BMP180;54434;50.096;20.082;2023-09-19T09:23:48;98326.80;;;18.02
67822;BMP180;54434;50.096;20.082;2023-09-19T09:26:45;98334.00;;;18.04
67822;BMP180;54434;50.096;20.082;2023-09-19T09:29:44;98329.80;;;18.04
67822;BMP180;54434;50.096;20.082;2023-09-19T09:32:28;98336.00;;;18.08
67822;BMP180;54434;50.096;20.082;2023-09-19T09:35:13;98341.00;;;18.10
67822;BMP180;54434;50.096;20.082;2023-09-19T09:38:02;98337.80;;;18.10
67822;BMP180;54434;50.096;20.082;2023-09-19T09:40:56;98343.60;;;18.20
67822;BMP180;54434;50.096;20.082;2023-09-19T09:43:39;98350.20;;;18.20
67822;BMP180;54434;50.096;20.082;2023-09-19T09:46:19;98352.20;;;18.20
67822;BMP180;54434;50.096;20.082;2023-09-19T09:49:15;98356.60;;;18.20
67822;BMP180;54434;50.096;20.082;2023-09-19T09:52:07;98365.00;;;18.20
67822;BMP180;54434;50.096;20.082;2023-09-19T09:55:05;98367.60;;;18.20
67822;BMP180;54434;50.096;20.082;2023-09-19T09:57:43;98374.20;;;18.20
67822;BMP180;54434;50.096;20.082;2023-09-19T10:00:58;98381.80;;;18.20
67822;BMP180;54434;50.096;20.082;2023-09-19T10:03:40;98382.40;;;18.20
67822;BMP180;54434;50.096;20.082;2023-09-19T10:06:21;98386.40;;;18.20
67822;BMP180;54434;50.096;20.082;2023-09-19T10:09:07;98384.40;;;18.20
67822;BMP180;54434;50.096;20.082;2023-09-19T10:12:04;98391.60;;;18.20
67822;BMP180;54434;50.096;20.082;2023-09-19T10:14:54;98397.20;;;18.26
67822;BMP180;54434;50.096;20.082;2023-09-19T10:17:50;98403.60;;;18.30
67822;BMP180;54434;50.096;20.082;2023-09-19T10:20:31;98406.60;;;18.30
67822;BMP180;54434;50.096;20.082;2023-09-19T10:23:15;98412.00;;;18.30
67822;BMP180;54434;50.096;20.082;2023-09-19T10:25:58;98416.20;;;18.30
67822;BMP180;54434;50.096;20.082;2023-09-19T10:28:39;98424.20;;;18.30
67822;BMP180;54434;50.096;20.082;2023-09-19T10:31:19;98422.20;;;18.28
67822;BMP180;54434;50.096;20.082;2023-09-19T10:34:01;98428.00;;;18.22
67822;BMP180;54434;50.096;20.082;2023-09-19T10:36:40;98433.20;;;18.30
67822;BMP180;54434;50.096;20.082;2023-09-19T10:39:20;98431.00;;;18.30
67822;BMP180;54434;50.096;20.082;2023-09-19T10:42:03;98431.20;;;18.20
67822;BMP180;54434;50.096;20.082;2023-09-19T10:44:44;98433.00;;;18.20
67822;BMP180;54434;50.096;20.082;2023-09-19T10:47:22;98433.20;;;18.20
67822;BMP180;54434;50.096;20.082;2023-09-19T10:50:00;98433.60;;;18.28
67822;BMP180;54434;50.096;20.082;2023-09-19T10:52:43;98438.80;;;18.30
67822;BMP180;54434;50.096;20.082;2023-09-19T10:55:22;98441.80;;;18.30
67822;BMP180;54434;50.096;20.082;2023-09-19T10:58:00;98444.60;;;18.40
67822;BMP180;54434;50.096;20.082;2023-09-19T11:00:54;98445.00;;;18.50
67822;BMP180;54434;50.096;20.082;2023-09-19T11:03:31;98451.40;;;18.50
67822;BMP180;54434;50.096;20.082;2023-09-19T11:06:15;98451.00;;;18.60
67822;BMP180;54434;50.096;20.082;2023-09-19T11:09:00;98457.20;;;18.66
67822;BMP180;54434;50.096;20.082;2023-09-19T11:11:57;98466.00;;;18.70
67822;BMP180;54434;50.096;20.082;2023-09-19T11:14:45;98465.00;;;18.70
67822;BMP180;54434;50.096;20.082;2023-09-19T11:17:38;98464.80;;;18.70
67822;BMP180;54434;50.096;20.082;2023-09-19T11:20:36;98466.00;;;18.70
67822;BMP180;54434;50.096;20.082;2023-09-19T11:23:26;98463.80;;;18.60
67822;BMP180;54434;50.096;20.082;2023-09-19T11:26:03;98465.60;;;18.60
67822;BMP180;54434;50.096;20.082;2023-09-19T11:28:40;98465.40;;;18.60
67822;BMP180;54434;50.096;20.082;2023-09-19T11:31:51;98464.60;;;18.60
67822;BMP180;54434;50.096;20.082;2023-09-19T11:34:49;98466.60;;;18.60
67822;BMP180;54434;50.096;20.082;2023-09-19T11:38:03;98470.00;;;18.60
67822;BMP180;54434;50.096;20.082;2023-09-19T11:44:37;98472.20;;;18.60
67822;BMP180;54434;50.096;20.082;2023-09-19T11:47:19;98480.20;;;18.52
67822;BMP180;54434;50.096;20.082;2023-09-19T11:49:57;98477.80;;;18.50
67822;BMP180;54434;50.096;20.082;2023-09-19T11:52:34;98480.40;;;18.50
67822;BMP180;54434;50.096;20.082;2023-09-19T11:55:13;98479.40;;;18.50
67822;BMP180;54434;50.096;20.082;2023-09-19T11:57:50;98479.40;;;18.50
67822;BMP180;54434;50.096;20.082;2023-09-19T12:00:27;98482.20;;;18.40
67822;BMP180;54434;50.096;20.082;2023-09-19T12:03:11;98482.00;;;18.40
67822;BMP180;54434;50.096;20.082;2023-09-19T12:05:50;98479.80;;;18.38
67822;BMP180;54434;50.096;20.082;2023-09-19T12:08:27;98479.20;;;18.30
67822;BMP180;54434;50.096;20.082;2023-09-19T12:11:07;98482.60;;;18.22
67822;BMP180;54434;50.096;20.082;2023-09-19T12:13:49;98485.20;;;18.20
67822;BMP180;54434;50.096;20.082;2023-09-19T12:16:26;98487.60;;;18.20
67822;BMP180;54434;50.096;20.082;2023-09-19T12:19:23;98487.20;;;18.20
67822;BMP180;54434;50.096;20.082;2023-09-19T12:22:04;98493.40;;;18.20
67822;BMP180;54434;50.096;20.082;2023-09-19T12:24:41;98497.60;;;18.10
67822;BMP180;54434;50.096;20.082;2023-09-19T12:27:19;98499.40;;;18.10
67822;BMP180;54434;50.096;20.082;2023-09-19T12:29:57;98499.00;;;18.10
67822;BMP180;54434;50.096;20.082;2023-09-19T12:32:44;98497.80;;;18.10
67822;BMP180;54434;50.096;20.082;2023-09-19T12:35:34;98500.20;;;18.10
67822;BMP180;54434;50.096;20.082;2023-09-19T12:38:10;98503.60;;;18.08
67822;BMP180;54434;50.096;20.082;2023-09-19T12:40:50;98503.20;;;18.00
67822;BMP180;54434;50.096;20.082;2023-09-19T12:43:29;98505.00;;;18.00
67822;BMP180;54434;50.096;20.082;2023-09-19T12:46:08;98504.40;;;18.00
67822;BMP180;54434;50.096;20.082;2023-09-19T12:48:45;98503.60;;;18.00
67822;BMP180;54434;50.096;20.082;2023-09-19T12:51:23;98505.20;;;18.04
67822;BMP180;54434;50.096;20.082;2023-09-19T12:54:05;98502.20;;;18.06
67822;BMP180;54434;50.096;20.082;2023-09-19T12:56:46;98502.40;;;18.10
67822;BMP180;54434;50.096;20.082;2023-09-19T12:59:32;98503.40;;;18.10
67822;BMP180;54434;50.096;20.082;2023-09-19T13:02:14;98502.60;;;18.10
67822;BMP180;54434;50.096;20.082;2023-09-19T13:04:58;98502.20;;;18.10
67822;BMP180;54434;50.096;20.082;2023-09-19T13:07:48;98502.20;;;18.18
67822;BMP180;54434;50.096;20.082;2023-09-19T13:10:26;98502.80;;;18.20
67822;BMP180;54434;50.096;20.082;2023-09-19T13:13:26;98505.20;;;18.20
67822;BMP180;54434;50.096;20.082;2023-09-19T13:16:05;98503.80;;;18.20
67822;BMP180;54434;50.096;20.082;2023-09-19T13:18:50;98509.00;;;18.30
67822;BMP180;54434;50.096;20.082;2023-09-19T13:21:36;98505.20;;;18.30
67822;BMP180;54434;50.096;20.082;2023-09-19T13:24:25;98507.40;;;18.30
67822;BMP180;54434;50.096;20.082;2023-09-19T13:27:02;98511.80;;;18.36
67822;BMP180;54434;50.096;20.082;2023-09-19T13:29:40;98512.00;;;18.40
67822;BMP180;54434;50.096;20.082;2023-09-19T13:32:16;98511.80;;;18.40
67822;BMP180;54434;50.096;20.082;2023-09-19T13:34:53;98515.60;;;18.50
67822;BMP180;54434;50.096;20.082;2023-09-19T13:37:29;98514.20;;;18.52
67822;BMP180;54434;50.096;20.082;2023-09-19T13:40:08;98513.20;;;18.60
67822;BMP180;54434;50.096;20.082;2023-09-19T13:42:45;98513.40;;;18.60
67822;BMP180;54434;50.096;20.082;2023-09-19T13:45:22;98519.60;;;18.68
67822;BMP180;54434;50.096;20.082;2023-09-19T13:48:02;98515.60;;;18.70
67822;BMP180;54434;50.096;20.082;2023-09-19T13:50:38;98521.80;;;18.70
67822;BMP180;54434;50.096;20.082;2023-09-19T13:53:17;98526.60;;;18.70
67822;BMP180;54434;50.096;20.082;2023-09-19T13:55:54;98529.60;;;18.72
67822;BMP180;54434;50.096;20.082;2023-09-19T13:58:31;98534.40;;;18.70
67822;BMP180;54434;50.096;20.082;2023-09-19T14:01:09;98531.00;;;18.70
67822;BMP180;54434;50.096;20.082;2023-09-19T14:03:48;98535.20;;;18.70
67822;BMP180;54434;50.096;20.082;2023-09-19T14:06:25;98541.00;;;18.70
67822;BMP180;54434;50.096;20.082;2023-09-19T14:09:02;98534.40;;;18.70
67822;BMP180;54434;50.096;20.082;2023-09-19T14:11:39;98538.40;;;18.70
67822;BMP180;54434;50.096;20.082;2023-09-19T14:14:17;98537.60;;;18.70
67822;BMP180;54434;50.096;20.082;2023-09-19T14:16:54;98540.20;;;18.70
67822;BMP180;54434;50.096;20.082;2023-09-19T14:19:31;98537.60;;;18.70
67822;BMP180;54434;50.096;20.082;2023-09-19T14:22:09;98540.20;;;18.80
67822;BMP180;54434;50.096;20.082;2023-09-19T14:24:46;98544.80;;;18.80
67822;BMP180;54434;50.096;20.082;2023-09-19T14:27:23;98540.60;;;18.80
67822;BMP180;54434;50.096;20.082;2023-09-19T14:30:00;98546.00;;;18.80
67822;BMP180;54434;50.096;20.082;2023-09-19T14:32:36;98544.60;;;18.82
67822;BMP180;54434;50.096;20.082;2023-09-19T14:35:13;98543.60;;;18.90
67822;BMP180;54434;50.096;20.082;2023-09-19T14:37:51;98540.60;;;19.00
67822;BMP180;54434;50.096;20.082;2023-09-19T14:40:28;98545.60;;;19.12
67822;BMP180;54434;50.096;20.082;2023-09-19T14:43:05;98546.20;;;19.30
67822;BMP180;54434;50.096;20.082;2023-09-19T14:45:43;98545.00;;;19.42
67822;BMP180;54434;50.096;20.082;2023-09-19T14:48:20;98550.00;;;19.60
67822;BMP180;54434;50.096;20.082;2023-09-19T14:51:03;98553.80;;;19.70
67822;BMP180;54434;50.096;20.082;2023-09-19T14:53:38;98556.40;;;19.80
67822;BMP180;54434;50.096;20.082;2023-09-19T14:56:14;98558.20;;;19.80
67822;BMP180;54434;50.096;20.082;2023-09-19T14:58:53;98557.40;;;19.82
67822;BMP180;54434;50.096;20.082;2023-09-19T15:01:31;98560.40;;;19.90
67822;BMP180;54434;50.096;20.082;2023-09-19T15:04:08;98568.60;;;19.90
67822;BMP180;54434;50.096;20.082;2023-09-19T15:06:45;98569.80;;;19.84
67822;BMP180;54434;50.096;20.082;2023-09-19T15:09:24;98571.40;;;19.80
67822;BMP180;54434;50.096;20.082;2023-09-19T15:12:01;98573.60;;;19.70
67822;BMP180;54434;50.096;20.082;2023-09-19T15:14:37;98575.80;;;19.70